createdAt,value
2017-11-04T00:01:12.503Z,6.40
2017-11-04T00:03:39.384Z,6.32
2017-11-04T00:06:07.481Z,6.36
2017-11-04T00:08:34.400Z,6.37
2017-11-04T00:11:01.220Z,6.35
2017-11-04T00:13:30.095Z,6.49
2017-11-04T00:15:58.460Z,6.91
2017-11-04T00:18:26.268Z,6.65
2017-11-04T00:20:53.905Z,6.50
2017-11-04T00:23:20.777Z,6.61
2017-11-04T00:25:48.401Z,6.43
2017-11-04T00:28:15.301Z,6.78
2017-11-04T00:30:42.175Z,7.06
2017-11-04T00:33:09.842Z,6.96
2017-11-04T00:35:36.736Z,6.70
2017-11-04T00:38:03.603Z,6.55
2017-11-04T00:40:30.541Z,6.45
2017-11-04T00:42:58.141Z,6.40
2017-11-04T00:45:25.028Z,6.55
2017-11-04T00:47:51.881Z,6.57
2017-11-04T00:50:18.744Z,6.45
2017-11-04T00:52:46.375Z,6.48
2017-11-04T00:55:13.225Z,6.57
2017-11-04T00:57:40.154Z,6.53
2017-11-04T01:00:07.029Z,6.48
2017-11-04T01:02:33.938Z,6.73
2017-11-04T01:05:00.811Z,6.79
2017-11-04T01:07:27.713Z,6.45
2017-11-04T01:09:54.588Z,6.34
2017-11-04T01:12:21.469Z,6.51
2017-11-04T01:14:48.339Z,6.53
2017-11-04T01:17:15.974Z,6.52
2017-11-04T01:19:42.989Z,6.86
2017-11-04T01:22:10.648Z,6.78
2017-11-04T01:24:37.530Z,6.57
2017-11-04T01:27:05.142Z,6.32
2017-11-04T01:29:32.065Z,6.32
2017-11-04T01:31:58.982Z,6.37
2017-11-04T01:34:25.868Z,6.92
2017-11-04T01:36:52.746Z,6.59
2017-11-04T01:39:20.366Z,6.96
2017-11-04T01:41:47.288Z,6.76
2017-11-04T01:44:14.261Z,6.42
2017-11-04T01:46:41.152Z,6.39
2017-11-04T01:49:08.050Z,6.59
2017-11-04T01:51:34.917Z,7.03
2017-11-04T01:54:01.463Z,6.86
2017-11-04T01:56:28.468Z,6.96
2017-11-04T01:58:56.102Z,7.36
2017-11-04T02:01:23.023Z,7.37
2017-11-04T02:03:49.965Z,7.57
2017-11-04T02:06:16.937Z,7.10
2017-11-04T02:08:44.631Z,6.81
2017-11-04T02:11:11.525Z,6.59
2017-11-04T02:13:38.420Z,6.40
2017-11-04T02:16:05.321Z,6.57
2017-11-04T02:18:32.238Z,6.78
2017-11-04T02:20:59.178Z,6.83
2017-11-04T02:23:26.086Z,6.54
2017-11-04T02:25:53.742Z,6.47
2017-11-04T02:28:20.675Z,6.41
2017-11-04T02:30:48.287Z,6.37
2017-11-04T02:33:15.169Z,6.35
2017-11-04T02:35:42.920Z,6.22
2017-11-04T02:38:09.817Z,6.33
2017-11-04T02:40:37.489Z,6.20
2017-11-04T02:43:04.492Z,6.20
2017-11-04T02:45:31.403Z,6.12
2017-11-04T02:47:58.255Z,6.15
2017-11-04T02:50:25.169Z,6.10
2017-11-04T02:52:52.052Z,6.08
2017-11-04T02:55:18.939Z,6.50
2017-11-04T02:57:45.835Z,6.19
2017-11-04T03:00:13.508Z,6.32
2017-11-04T03:02:41.131Z,6.19
2017-11-04T03:05:08.049Z,6.16
2017-11-04T03:07:34.968Z,6.10
2017-11-04T03:10:01.954Z,6.18
2017-11-04T03:12:28.841Z,6.08
2017-11-04T03:14:55.699Z,6.29
2017-11-04T03:17:22.551Z,6.44
2017-11-04T03:19:49.479Z,6.91
2017-11-04T03:22:16.432Z,7.18
2017-11-04T03:24:43.324Z,7.15
2017-11-04T03:27:10.214Z,7.11
2017-11-04T03:29:38.029Z,6.84
2017-11-04T03:32:04.961Z,6.86
2017-11-04T03:34:32.709Z,6.64
2017-11-04T03:36:59.630Z,6.75
2017-11-04T03:39:26.547Z,6.48
2017-11-04T03:41:53.484Z,6.23
2017-11-04T03:44:21.086Z,6.24
2017-11-04T03:46:47.966Z,6.17
2017-11-04T03:49:14.815Z,6.24
2017-11-04T03:51:41.672Z,6.20
2017-11-04T03:54:08.589Z,6.15
2017-11-04T03:56:35.465Z,6.14
2017-11-04T03:59:02.401Z,6.08
2017-11-04T04:01:29.283Z,6.12
2017-11-04T04:03:56.158Z,6.38
2017-11-04T04:06:23.051Z,6.50
2017-11-04T04:08:49.939Z,6.67
2017-11-04T04:11:16.817Z,6.58
2017-11-04T04:13:43.683Z,6.40
2017-11-04T04:16:10.553Z,6.18
2017-11-04T04:18:37.406Z,6.17
2017-11-04T04:21:04.301Z,6.72
2017-11-04T04:23:31.198Z,6.79
2017-11-04T04:25:58.063Z,6.46
2017-11-04T04:28:25.678Z,6.78
2017-11-04T04:30:52.569Z,6.46
2017-11-04T04:33:19.477Z,6.68
2017-11-04T04:35:47.119Z,6.42
2017-11-04T04:38:14.070Z,6.64
2017-11-04T04:40:41.009Z,6.36
2017-11-04T04:43:07.936Z,6.21
2017-11-04T04:45:34.892Z,6.11
2017-11-04T04:48:01.808Z,6.16
2017-11-04T04:50:28.768Z,6.00
2017-11-04T04:52:55.692Z,6.30
2017-11-04T04:55:22.581Z,6.00
2017-11-04T04:57:49.440Z,6.16
2017-11-04T05:00:16.378Z,6.43
2017-11-04T05:02:43.298Z,6.11
2017-11-04T05:05:10.171Z,6.08
2017-11-04T05:07:37.058Z,6.59
2017-11-04T05:10:03.952Z,6.30
2017-11-04T05:12:33.818Z,6.23
2017-11-04T05:15:00.682Z,6.37
2017-11-04T05:17:27.615Z,6.24
2017-11-04T05:19:54.502Z,6.35
2017-11-04T05:22:22.396Z,6.53
2017-11-04T05:24:50.010Z,6.39
2017-11-04T05:27:16.968Z,6.31
2017-11-04T05:29:43.821Z,6.50
2017-11-04T05:32:10.688Z,6.69
2017-11-04T05:34:37.558Z,6.65
2017-11-04T05:37:04.431Z,6.63
2017-11-04T05:39:31.325Z,6.43
2017-11-04T05:41:58.204Z,6.53
2017-11-04T05:44:25.109Z,6.53
2017-11-04T05:46:52.032Z,6.72
2017-11-04T05:49:18.903Z,6.71
2017-11-04T05:51:45.781Z,6.67
2017-11-04T05:54:12.654Z,6.68
2017-11-04T05:56:39.533Z,6.70
2017-11-04T05:59:06.465Z,6.78
2017-11-04T06:01:34.134Z,6.82
2017-11-04T06:04:01.788Z,7.05
2017-11-04T06:06:28.669Z,7.14
2017-11-04T06:08:55.540Z,6.91
2017-11-04T06:11:22.469Z,6.95
2017-11-04T06:13:49.434Z,6.93
2017-11-04T06:16:16.319Z,7.01
2017-11-04T06:18:43.193Z,7.26
2017-11-04T06:21:10.120Z,7.44
2017-11-04T06:23:37.017Z,7.39
2017-11-04T06:26:04.354Z,7.48
2017-11-04T06:28:32.042Z,7.28
2017-11-04T06:30:58.926Z,7.17
2017-11-04T06:33:25.810Z,7.11
2017-11-04T06:35:52.708Z,7.12
2017-11-04T06:38:19.862Z,7.04
2017-11-04T06:40:46.769Z,6.98
2017-11-04T06:43:13.646Z,7.26
2017-11-04T06:45:40.519Z,7.48
2017-11-04T06:48:07.398Z,7.63
2017-11-04T06:50:34.881Z,7.80
2017-11-04T06:53:01.766Z,7.58
2017-11-04T06:55:28.657Z,7.75
2017-11-04T06:57:56.280Z,7.70
2017-11-04T07:00:23.147Z,7.59
2017-11-04T07:02:50.036Z,7.66
2017-11-04T07:05:16.963Z,7.65
2017-11-04T07:07:43.836Z,7.47
2017-11-04T07:10:11.463Z,7.36
2017-11-04T07:12:38.351Z,7.69
2017-11-04T07:15:06.025Z,7.82
2017-11-04T07:17:32.906Z,7.44
2017-11-04T07:19:59.798Z,7.51
2017-11-04T07:22:31.995Z,7.59
2017-11-04T07:24:58.905Z,7.52
2017-11-04T07:27:25.776Z,7.44
2017-11-04T07:29:52.667Z,7.44
2017-11-04T07:32:19.553Z,7.45
2017-11-04T07:34:46.458Z,7.60
2017-11-04T07:37:13.395Z,7.80
2017-11-04T07:39:41.020Z,7.83
2017-11-04T07:42:08.072Z,8.03
2017-11-04T07:44:36.473Z,8.11
2017-11-04T07:47:03.394Z,8.28
2017-11-04T07:49:30.340Z,8.14
2017-11-04T07:51:57.276Z,8.35
2017-11-04T07:54:24.197Z,8.32
2017-11-04T07:56:51.091Z,8.28
2017-11-04T07:59:17.973Z,8.34
2017-11-04T08:01:44.824Z,8.38
2017-11-04T08:04:11.892Z,8.31
2017-11-04T08:06:38.806Z,8.42
2017-11-04T08:09:05.743Z,8.51
2017-11-04T08:11:32.634Z,8.60
2017-11-04T08:13:59.538Z,8.64
2017-11-04T08:16:26.408Z,8.72
2017-11-04T08:18:53.292Z,8.84
2017-11-04T08:21:20.905Z,8.99
2017-11-04T08:23:47.820Z,9.14
2017-11-04T08:26:14.725Z,9.27
2017-11-04T08:28:41.645Z,9.39
2017-11-04T08:31:08.573Z,9.46
2017-11-04T08:33:35.496Z,9.51
2017-11-04T08:36:05.353Z,9.66
2017-11-04T08:41:12.141Z,9.78
2017-11-04T08:43:39.163Z,9.97
2017-11-04T08:46:06.135Z,9.94
2017-11-04T08:48:33.130Z,9.99
2017-11-04T08:51:00.060Z,9.99
2017-11-04T08:53:26.992Z,10.17
2017-11-04T08:55:55.487Z,10.33
2017-11-04T08:58:22.381Z,10.43
2017-11-04T09:00:49.393Z,10.44
2017-11-04T09:03:16.265Z,10.39
2017-11-04T09:05:43.139Z,10.64
2017-11-04T09:10:51.785Z,10.78
2017-11-04T09:15:58.339Z,11.07
2017-11-04T09:18:25.227Z,11.13
2017-11-04T09:20:52.150Z,11.12
2017-11-04T09:25:55.762Z,11.02
2017-11-04T09:28:22.631Z,11.13
2017-11-04T09:30:52.389Z,11.20
2017-11-04T09:33:19.288Z,11.25
2017-11-04T09:35:46.181Z,11.30
2017-11-04T09:38:13.089Z,11.31
2017-11-04T09:40:40.768Z,11.38
2017-11-04T09:43:07.736Z,11.47
2017-11-04T09:45:34.687Z,11.86
2017-11-04T09:48:01.595Z,11.59
2017-11-04T09:50:28.541Z,11.58
2017-11-04T09:52:55.835Z,11.60
2017-11-04T09:55:22.742Z,11.57
2017-11-04T09:57:49.717Z,11.67
2017-11-04T10:00:16.628Z,11.67
2017-11-04T10:02:43.638Z,11.59
2017-11-04T10:05:10.625Z,11.65
2017-11-04T10:07:37.890Z,11.63
2017-11-04T10:10:04.824Z,11.67
2017-11-04T10:12:31.777Z,11.61
2017-11-04T10:14:58.677Z,11.70
2017-11-04T10:17:25.671Z,11.80
2017-11-04T10:19:52.614Z,12.05
2017-11-04T10:22:19.550Z,12.06
2017-11-04T10:24:46.454Z,12.07
2017-11-04T10:27:13.345Z,12.13
2017-11-04T10:29:40.258Z,12.33
2017-11-04T10:32:07.180Z,12.33
2017-11-04T10:34:34.111Z,12.40
2017-11-04T10:37:01.042Z,12.63
2017-11-04T10:39:27.919Z,12.59
2017-11-04T10:41:54.860Z,12.75
2017-11-04T10:44:21.736Z,12.65
2017-11-04T10:46:48.671Z,12.71
2017-11-04T10:49:15.539Z,12.62
2017-11-04T10:51:43.154Z,12.82
2017-11-04T10:54:10.178Z,12.92
2017-11-04T10:56:37.062Z,12.87
2017-11-04T10:59:03.946Z,13.00
2017-11-04T11:01:30.851Z,13.16
2017-11-04T11:03:57.764Z,13.08
2017-11-04T11:06:24.693Z,13.19
2017-11-04T11:08:51.551Z,13.20
2017-11-04T11:11:18.498Z,13.27
2017-11-04T11:13:45.412Z,13.28
2017-11-04T11:16:13.310Z,13.17
2017-11-04T11:18:40.163Z,13.27
2017-11-04T11:21:07.041Z,13.52
2017-11-04T11:23:33.923Z,13.45
2017-11-04T11:26:01.048Z,13.49
2017-11-04T11:28:27.956Z,13.58
2017-11-04T11:30:54.860Z,13.54
2017-11-04T11:33:21.749Z,13.68
2017-11-04T11:35:48.729Z,13.64
2017-11-04T11:38:15.632Z,13.57
2017-11-04T11:40:42.639Z,13.59
2017-11-04T11:43:09.677Z,13.64
2017-11-04T11:45:36.638Z,13.93
2017-11-04T11:48:04.277Z,13.90
2017-11-04T11:50:31.173Z,13.99
2017-11-04T11:52:58.101Z,14.04
2017-11-04T11:55:25.003Z,14.04
2017-11-04T11:57:51.833Z,14.24
2017-11-04T12:00:19.477Z,14.22
2017-11-04T12:02:46.327Z,14.28
2017-11-04T12:05:13.209Z,14.34
2017-11-04T12:07:40.067Z,14.43
2017-11-04T12:10:06.908Z,14.51
2017-11-04T12:12:33.758Z,14.70
2017-11-04T12:15:00.665Z,15.06
2017-11-04T12:17:27.584Z,14.95
2017-11-04T12:19:55.300Z,14.82
2017-11-04T12:22:23.169Z,14.92
2017-11-04T12:24:50.050Z,14.98
2017-11-04T12:27:18.672Z,15.22
2017-11-04T12:29:45.585Z,15.10
2017-11-04T12:32:12.482Z,15.16
2017-11-04T12:34:39.395Z,15.21
2017-11-04T12:37:07.073Z,15.32
2017-11-04T12:39:36.914Z,15.18
2017-11-04T12:42:04.186Z,15.49
2017-11-04T12:44:32.086Z,15.11
2017-11-04T12:46:59.888Z,15.32
2017-11-04T12:49:28.452Z,15.36
2017-11-04T12:51:56.241Z,15.56
2017-11-04T12:54:26.961Z,15.48
2017-11-04T12:56:53.816Z,15.74
2017-11-04T12:59:20.975Z,15.99
2017-11-04T13:01:47.840Z,15.95
2017-11-04T13:04:14.684Z,16.04
2017-11-04T13:09:34.477Z,15.78
2017-11-04T13:12:01.343Z,15.64
2017-11-04T13:14:28.189Z,15.87
2017-11-04T13:16:57.510Z,15.82
2017-11-04T13:19:28.058Z,15.90
2017-11-04T13:21:54.924Z,16.02
2017-11-04T13:24:21.810Z,16.25
2017-11-04T13:26:48.684Z,15.78
2017-11-04T13:29:15.577Z,15.96
2017-11-04T13:31:44.917Z,16.21
2017-11-04T13:34:15.956Z,16.21
2017-11-04T13:36:44.875Z,16.13
2017-11-04T13:39:16.638Z,16.29
2017-11-04T13:41:45.976Z,16.37
2017-11-04T13:44:12.860Z,16.08
2017-11-04T13:46:39.722Z,16.26
2017-11-04T13:49:06.593Z,16.08
2017-11-04T13:51:33.512Z,16.09
2017-11-04T13:54:01.314Z,16.05
2017-11-04T13:59:03.695Z,16.20
2017-11-04T14:01:35.197Z,16.07
2017-11-04T14:04:04.570Z,16.12
2017-11-04T14:06:31.794Z,16.07
2017-11-04T14:08:58.675Z,16.22
2017-11-04T14:11:25.560Z,16.17
2017-11-04T14:13:53.749Z,16.23
2017-11-04T14:16:20.652Z,16.22
2017-11-04T14:18:48.806Z,16.41
2017-11-04T14:21:16.034Z,16.24
2017-11-04T14:23:43.128Z,16.08
2017-11-04T14:28:54.776Z,16.18
2017-11-04T14:31:22.377Z,16.07
2017-11-04T14:33:50.403Z,16.24
2017-11-04T14:36:17.316Z,16.00
2017-11-04T14:38:44.313Z,15.90
2017-11-04T14:41:11.179Z,15.88
2017-11-04T14:43:38.057Z,15.90
2017-11-04T14:46:04.936Z,15.43
2017-11-04T14:48:31.780Z,15.60
2017-11-04T14:50:58.632Z,15.70
2017-11-04T14:53:26.927Z,15.59
2017-11-04T14:55:53.793Z,15.51
2017-11-04T14:58:20.734Z,15.39
2017-11-04T15:00:49.974Z,15.48
2017-11-04T15:03:18.056Z,15.38
2017-11-04T15:05:44.979Z,15.29
2017-11-04T15:08:11.882Z,15.27
2017-11-04T15:10:38.930Z,15.15
2017-11-04T15:13:06.544Z,15.08
2017-11-04T15:15:34.186Z,15.01
2017-11-04T15:18:01.784Z,14.94
2017-11-04T15:20:29.383Z,14.79
2017-11-04T15:22:56.280Z,14.93
2017-11-04T15:25:23.182Z,14.83
2017-11-04T15:27:50.055Z,14.85
2017-11-04T15:30:16.910Z,14.83
2017-11-04T15:32:43.751Z,14.78
2017-11-04T15:35:11.357Z,14.62
2017-11-04T15:37:38.287Z,14.76
2017-11-04T15:40:05.184Z,14.73
2017-11-04T15:42:32.140Z,14.66
2017-11-04T15:44:59.027Z,14.72
2017-11-04T15:47:25.927Z,14.76
2017-11-04T15:49:53.538Z,14.67
2017-11-04T15:52:20.640Z,14.70
2017-11-04T15:54:48.909Z,14.60
2017-11-04T15:57:15.897Z,14.65
2017-11-04T15:59:42.744Z,14.66
2017-11-04T16:02:09.610Z,14.58
2017-11-04T16:04:36.579Z,14.61
2017-11-04T16:07:03.452Z,14.66
2017-11-04T16:09:30.404Z,14.63
2017-11-04T16:11:57.276Z,14.66
2017-11-04T16:14:24.130Z,14.67
2017-11-04T16:16:50.985Z,14.66
2017-11-04T16:19:17.839Z,14.56
2017-11-04T16:21:44.715Z,14.67
2017-11-04T16:24:11.563Z,14.64
2017-11-04T16:26:38.451Z,14.73
2017-11-04T16:29:05.335Z,14.64
2017-11-04T16:31:32.935Z,14.58
2017-11-04T16:33:59.777Z,14.63
2017-11-04T16:36:27.386Z,14.72
2017-11-04T16:38:54.250Z,14.75
2017-11-04T16:41:21.118Z,14.74
2017-11-04T16:43:47.976Z,14.62
2017-11-04T16:46:14.845Z,14.64
2017-11-04T16:48:41.719Z,14.67
2017-11-04T16:51:08.585Z,14.56
2017-11-04T16:53:35.423Z,14.59
2017-11-04T16:56:03.319Z,14.60
2017-11-04T16:58:30.478Z,14.66
2017-11-04T17:00:57.432Z,14.60
2017-11-04T17:03:24.362Z,14.59
2017-11-04T17:05:51.979Z,14.53
2017-11-04T17:08:18.858Z,14.64
2017-11-04T17:10:45.697Z,14.68
2017-11-04T17:13:12.558Z,14.57
2017-11-04T17:15:39.439Z,14.57
2017-11-04T17:18:06.322Z,14.56
2017-11-04T17:20:33.194Z,14.58
2017-11-04T17:23:00.114Z,14.62
2017-11-04T17:25:27.029Z,14.62
2017-11-04T17:27:53.894Z,14.58
2017-11-04T17:30:20.768Z,14.62
2017-11-04T17:32:48.402Z,14.60
2017-11-04T17:35:15.309Z,14.54
2017-11-04T17:37:42.935Z,14.64
2017-11-04T17:40:09.814Z,14.51
2017-11-04T17:42:36.706Z,14.53
2017-11-04T17:45:04.308Z,14.48
2017-11-04T17:47:31.238Z,14.54
2017-11-04T17:49:58.243Z,14.57
2017-11-04T17:52:25.173Z,14.60
2017-11-04T17:54:52.868Z,14.60
2017-11-04T17:57:31.086Z,14.57
2017-11-04T17:59:58.807Z,14.53
2017-11-04T18:02:25.695Z,14.58
2017-11-04T18:04:53.124Z,14.50
2017-11-04T18:07:21.626Z,14.49
2017-11-04T18:09:48.514Z,14.52
2017-11-04T18:12:15.384Z,14.41
2017-11-04T18:14:42.488Z,14.44
2017-11-04T18:17:10.106Z,14.38
2017-11-04T18:19:38.430Z,14.37
2017-11-04T18:22:06.388Z,14.30
2017-11-04T18:24:33.273Z,14.28
2017-11-04T18:27:00.137Z,14.30
2017-11-04T18:29:27.001Z,14.25
2017-11-04T18:31:53.907Z,14.20
2017-11-04T18:34:21.504Z,14.28
2017-11-04T18:36:48.376Z,14.23
2017-11-04T18:39:15.338Z,14.23
2017-11-04T18:41:42.271Z,14.19
2017-11-04T18:44:09.894Z,14.22
2017-11-04T18:46:36.810Z,14.17
2017-11-04T18:49:03.869Z,14.05
2017-11-04T18:51:30.809Z,14.09
2017-11-04T18:53:58.453Z,14.04
2017-11-04T18:56:25.581Z,14.10
2017-11-04T18:58:53.230Z,14.11
2017-11-04T19:01:20.549Z,14.07
2017-11-04T19:03:47.556Z,14.01
2017-11-04T19:06:15.050Z,14.05
2017-11-04T19:08:43.069Z,14.04
2017-11-04T19:11:10.424Z,14.07
2017-11-04T19:13:38.239Z,14.05
2017-11-04T19:16:05.473Z,14.13
2017-11-04T19:18:32.811Z,14.14
2017-11-04T19:21:00.459Z,14.14
2017-11-04T19:23:29.398Z,14.18
2017-11-04T19:25:57.147Z,14.21
2017-11-04T19:28:24.142Z,14.27
2017-11-04T19:30:51.831Z,14.20
2017-11-04T19:33:18.801Z,14.20
2017-11-04T19:35:46.015Z,14.20
2017-11-04T19:38:14.076Z,14.13
2017-11-04T19:40:41.916Z,14.13
2017-11-04T19:43:09.894Z,14.14
2017-11-04T19:45:36.925Z,14.12
2017-11-04T19:48:06.506Z,14.16
2017-11-04T19:50:33.550Z,14.09
2017-11-04T19:53:01.086Z,14.06
2017-11-04T19:55:29.013Z,14.05
2017-11-04T19:57:56.180Z,14.08
2017-11-04T20:00:23.408Z,14.06
2017-11-04T20:02:50.442Z,14.09
2017-11-04T20:05:17.481Z,14.10
2017-11-04T20:07:45.853Z,14.08
2017-11-04T20:10:12.903Z,14.10
2017-11-04T20:12:41.006Z,14.12
2017-11-04T20:15:08.725Z,14.13
2017-11-04T20:17:35.645Z,14.14
2017-11-04T20:20:02.580Z,14.10
2017-11-04T20:22:29.585Z,14.13
2017-11-04T20:24:57.322Z,14.07
2017-11-04T20:27:24.261Z,14.15
2017-11-04T20:29:51.240Z,14.14
2017-11-04T20:32:18.761Z,14.14
2017-11-04T20:34:45.916Z,14.14
2017-11-04T20:37:13.059Z,14.13
2017-11-04T20:39:41.002Z,14.10
2017-11-04T20:42:08.679Z,14.11
2017-11-04T20:44:38.258Z,14.13
2017-11-04T20:47:05.532Z,14.12
2017-11-04T20:49:34.559Z,14.12
2017-11-04T20:52:01.484Z,14.08
2017-11-04T20:54:29.121Z,14.09
2017-11-04T20:56:56.358Z,14.06
2017-11-04T20:59:23.320Z,14.04
2017-11-04T21:01:50.176Z,14.05
2017-11-04T21:04:17.542Z,14.06
2017-11-04T21:06:45.226Z,14.08
2017-11-04T21:09:13.233Z,14.07
2017-11-04T21:11:41.815Z,14.08
2017-11-04T21:14:09.702Z,14.05
2017-11-04T21:16:36.659Z,14.06
2017-11-04T21:19:03.630Z,14.10
2017-11-04T21:21:30.633Z,14.06
2017-11-04T21:23:58.441Z,14.08
2017-11-04T21:26:25.622Z,14.12
2017-11-04T21:28:52.600Z,14.13
2017-11-04T21:31:19.485Z,14.15
2017-11-04T21:33:46.358Z,14.23
2017-11-04T21:36:13.950Z,14.16
2017-11-04T21:38:40.900Z,14.15
2017-11-04T21:41:07.773Z,14.17
2017-11-04T21:43:34.819Z,14.15
2017-11-04T21:46:02.148Z,14.12
2017-11-04T21:48:29.243Z,14.12
2017-11-04T21:50:56.130Z,14.14
2017-11-04T21:53:23.033Z,14.14
2017-11-04T21:55:50.082Z,14.13
2017-11-04T21:58:17.757Z,14.17
2017-11-04T22:00:45.519Z,14.15
2017-11-04T22:03:12.579Z,14.17
2017-11-04T22:05:39.504Z,14.16
2017-11-04T22:08:06.487Z,14.13
2017-11-04T22:10:33.520Z,14.17
2017-11-04T22:13:00.442Z,14.15
2017-11-04T22:15:27.301Z,14.17
2017-11-04T22:17:54.218Z,14.16
2017-11-04T22:20:21.119Z,14.14
2017-11-04T22:22:47.975Z,14.20
2017-11-04T22:25:14.851Z,14.16
2017-11-04T22:27:41.710Z,14.08
2017-11-04T22:30:08.585Z,14.10
2017-11-04T22:32:35.429Z,14.13
2017-11-04T22:35:02.390Z,14.07
2017-11-04T22:37:29.236Z,14.15
2017-11-04T22:39:56.067Z,14.09
2017-11-04T22:42:22.966Z,14.16
2017-11-04T22:44:49.868Z,14.12
2017-11-04T22:47:17.524Z,14.14
2017-11-04T22:49:44.418Z,14.10
2017-11-04T22:52:12.061Z,14.10
2017-11-04T22:54:38.908Z,14.06
2017-11-04T22:57:05.811Z,14.09
2017-11-04T22:59:33.394Z,14.13
2017-11-04T23:02:00.963Z,14.08
2017-11-04T23:04:27.842Z,14.07
2017-11-04T23:06:54.722Z,14.08
2017-11-04T23:09:22.325Z,14.06
2017-11-04T23:11:49.175Z,14.06
2017-11-04T23:14:16.086Z,14.06
2017-11-04T23:16:42.966Z,14.04
2017-11-04T23:19:09.836Z,13.99
2017-11-04T23:21:36.812Z,14.04
2017-11-04T23:24:03.786Z,13.99
2017-11-04T23:26:30.654Z,13.98
2017-11-04T23:28:57.557Z,13.99
2017-11-04T23:31:24.427Z,14.03
2017-11-04T23:33:51.275Z,14.04
2017-11-04T23:36:18.164Z,13.96
2017-11-04T23:38:45.039Z,14.02
2017-11-04T23:41:11.930Z,14.00
2017-11-04T23:43:38.791Z,14.03
2017-11-04T23:46:05.627Z,14.02
2017-11-04T23:48:32.534Z,13.97
2017-11-04T23:50:59.387Z,13.95
2017-11-04T23:53:26.251Z,13.94
2017-11-04T23:55:53.160Z,13.95
2017-11-04T23:58:21.412Z,13.94
